Hovedside
METAR-TAF:

METAR-TAF

Lufthavner :

Lakselv lufthavn. Banak

Lakselv, Norge

breddegrad: 70-04N, lengdegrad: 024-59E, høyde over havet: 0 m

Gjeldene værobservasjon

Denne rapporten ble laget for 30 minutter siden, klokken 23:20 UTC
Vind 3 kt fra skiftende retning
Temperatur 6°C
Luftfuktighet 61%
Trykk 1020 hPa
Sikt 10 km eller mer
Få skyer i en høyde av 4500 ft
Brutte skyer i en høyde av 12000 ft

METAR: ENNA 132320Z VRB03KT 9999 FEW045 BKN120 06/M01 Q1020 RMK WIND 1800FT 28039KT

Tid: 00:50 (23:50 UTC)

Varsel

Varsel gyldig fra 13. klokken 18 UTC til 14. klokken 18 UTC
Vind 8 kt fra Sør
Sikt 10 km eller mer
Få skyer i en høyde av 2500 ft
Brutte skyer i en høyde av 5000 ft
Midlertidig
fra 13. klokken 21 UTC til 14. klokken 09 UTC
Vind 25 kt fra Vest med vindkast opp mot 40 kt

TAF: ENNA 1318/1418 19008KT 9999 FEW025 BKN050 TEMPO 1321/1409 26025G40KT

Værobservasjoner og værvarsel for over 4000 flyplasser (METAR- og TAF-rapporter).

Tilgjengelige stasjoner er representert av de røde og gule prikkene på kartet.

Hold musepekeren over prikken for å se navnet på stasjonen.

Klikk så for å se værobservasjoner og -varsler.

For å forandre kartet kan du klikke på den grønne knappen med svart kryss for å zoome inn, på den grønne knappen med strek for å zoome ut, eller på de grønne pilene for å se tilstøtende kart.


METAR-TAF: